createdAt,value
2019-04-21T00:00:00.332Z,14.69
2019-04-21T00:02:36.049Z,14.55
2019-04-21T00:05:24.726Z,14.46
2019-04-21T00:07:50.726Z,14.36
2019-04-21T00:10:27.861Z,14.39
2019-04-21T00:12:53.444Z,14.33
2019-04-21T00:15:19.361Z,14.45
2019-04-21T00:17:43.562Z,14.46
2019-04-21T00:20:28.395Z,14.42
2019-04-21T00:22:58.862Z,14.41
2019-04-21T00:25:33.885Z,14.30
2019-04-21T00:28:17.015Z,14.22
2019-04-21T00:30:47.052Z,14.19
2019-04-21T00:33:04.582Z,14.20
2019-04-21T00:35:26.456Z,14.07
2019-04-21T00:38:17.021Z,13.93
2019-04-21T00:40:52.136Z,13.79
2019-04-21T00:43:17.708Z,13.70
2019-04-21T00:45:41.832Z,13.65
2019-04-21T00:48:23.328Z,13.63
2019-04-21T00:51:10.652Z,13.49
2019-04-21T00:53:54.592Z,13.42
2019-04-21T00:56:15.312Z,13.38
2019-04-21T00:58:48.121Z,13.45
2019-04-21T01:01:15.186Z,13.49
2019-04-21T01:03:52.990Z,13.49
2019-04-21T01:06:22.406Z,13.47
2019-04-21T01:08:48.919Z,13.46
2019-04-21T01:11:26.304Z,13.51
2019-04-21T01:13:58.009Z,13.52
2019-04-21T01:16:27.279Z,13.54
2019-04-21T01:18:59.114Z,13.57
2019-04-21T01:21:13.972Z,13.45
2019-04-21T01:23:36.264Z,13.37
2019-04-21T01:26:18.239Z,13.30
2019-04-21T01:28:58.386Z,13.25
2019-04-21T01:31:22.725Z,13.23
2019-04-21T01:34:02.895Z,13.31
2019-04-21T01:36:24.182Z,13.29
2019-04-21T01:39:08.407Z,13.36
2019-04-21T01:44:00.754Z,13.47
2019-04-21T01:46:32.266Z,13.36
2019-04-21T01:49:02.847Z,13.26
2019-04-21T01:51:37.296Z,13.26
2019-04-21T01:54:19.432Z,13.34
2019-04-21T01:56:44.477Z,13.34
2019-04-21T01:59:07.397Z,13.35
2019-04-21T02:01:52.413Z,13.35
2019-04-21T02:04:24.506Z,13.27
2019-04-21T02:06:59.979Z,13.20
2019-04-21T02:09:18.911Z,13.11
2019-04-21T02:12:07.318Z,13.10
2019-04-21T02:14:31.814Z,13.08
2019-04-21T02:17:00.666Z,13.02
2019-04-21T02:19:26.181Z,13.01
2019-04-21T02:21:56.709Z,12.99
2019-04-21T02:27:08.558Z,12.98
2019-04-21T02:29:40.672Z,12.88
2019-04-21T02:32:14.754Z,12.91
2019-04-21T02:34:49.044Z,12.91
2019-04-21T02:39:56.736Z,12.97
2019-04-21T02:42:20.824Z,12.98
2019-04-21T02:44:56.340Z,12.89
2019-04-21T02:47:27.486Z,12.91
2019-04-21T02:50:01.952Z,12.99
2019-04-21T02:52:31.083Z,12.94
2019-04-21T02:55:02.295Z,12.91
2019-04-21T02:57:22.825Z,12.92
2019-04-21T03:00:06.525Z,12.80
2019-04-21T03:02:46.927Z,12.71
2019-04-21T03:05:28.311Z,12.73
2019-04-21T03:07:55.240Z,12.66
2019-04-21T03:10:29.925Z,12.70
2019-04-21T03:12:56.916Z,12.61
2019-04-21T03:15:29.549Z,12.65
2019-04-21T03:18:38.002Z,12.71
2019-04-21T03:20:35.803Z,12.68
2019-04-21T03:23:12.689Z,12.67
2019-04-21T03:28:04.960Z,12.63
2019-04-21T03:33:53.904Z,12.45
2019-04-21T03:38:16.597Z,12.31
2019-04-21T03:40:44.383Z,12.26
2019-04-21T03:43:16.730Z,12.30
2019-04-21T03:48:24.160Z,12.20
2019-04-21T03:50:39.501Z,12.16
2019-04-21T03:53:20.813Z,12.11
2019-04-21T04:01:00.271Z,12.02
2019-04-21T04:03:52.205Z,11.98
2019-04-21T04:09:11.174Z,12.14
2019-04-21T04:11:29.216Z,12.12
2019-04-21T04:13:55.731Z,12.10
2019-04-21T04:26:37.371Z,12.07
2019-04-21T04:29:03.943Z,12.05
2019-04-21T04:31:37.575Z,12.11
2019-04-21T04:34:04.768Z,12.13
2019-04-21T04:39:36.631Z,12.14
2019-04-21T04:44:39.388Z,12.11
2019-04-21T04:49:40.024Z,12.06
2019-04-21T04:54:42.769Z,12.07
2019-04-21T04:57:08.183Z,12.09
2019-04-21T05:02:10.978Z,12.16
2019-04-21T05:04:59.156Z,12.19
2019-04-21T05:07:09.708Z,12.21
2019-04-21T05:09:44.640Z,12.19
2019-04-21T05:12:07.248Z,12.27
2019-04-21T05:14:46.699Z,12.31
2019-04-21T05:17:14.107Z,12.39
2019-04-21T05:19:53.844Z,12.49
2019-04-21T05:22:17.169Z,12.56
2019-04-21T05:24:33.777Z,12.69
2019-04-21T05:27:02.672Z,12.84
2019-04-21T05:29:37.579Z,12.98
2019-04-21T05:32:22.936Z,13.13
2019-04-21T05:34:54.264Z,13.31
2019-04-21T05:37:25.643Z,13.51
2019-04-21T05:39:51.175Z,13.66
2019-04-21T05:42:17.042Z,13.88
2019-04-21T05:45:02.969Z,14.09
2019-04-21T05:47:35.343Z,14.35
2019-04-21T05:50:03.188Z,14.63
2019-04-21T05:52:35.298Z,14.88
2019-04-21T05:55:12.355Z,15.26
2019-04-21T05:57:38.084Z,15.68
2019-04-21T06:00:15.638Z,15.98
2019-04-21T06:02:56.044Z,16.34
2019-04-21T06:05:23.151Z,16.69
2019-04-21T06:07:48.962Z,16.95
2019-04-21T06:10:25.146Z,17.01
2019-04-21T06:12:57.718Z,17.35
2019-04-21T06:15:27.594Z,17.69
2019-04-21T06:17:59.308Z,17.88
2019-04-21T06:20:30.367Z,17.98
2019-04-21T06:22:56.826Z,18.22
2019-04-21T06:28:01.579Z,18.70
2019-04-21T06:30:33.652Z,18.66
2019-04-21T06:32:59.057Z,18.97
2019-04-21T06:36:11.316Z,19.61
2019-04-21T06:38:54.089Z,21.18
2019-04-21T06:41:12.922Z,23.30
2019-04-21T06:43:48.215Z,25.81
2019-04-21T06:46:20.041Z,27.13
2019-04-21T06:48:49.744Z,28.07
2019-04-21T06:51:24.073Z,28.97
2019-04-21T06:53:57.836Z,28.98
2019-04-21T06:56:27.095Z,29.44
2019-04-21T06:58:51.559Z,29.80
2019-04-21T07:01:25.254Z,30.21
2019-04-21T07:04:02.985Z,29.63
2019-04-21T07:06:24.145Z,28.78
2019-04-21T07:09:03.121Z,27.75
2019-04-21T07:11:28.732Z,27.41
2019-04-21T07:14:16.196Z,27.76
2019-04-21T07:16:36.865Z,28.02
2019-04-21T07:19:09.942Z,28.21
2019-04-21T07:21:33.816Z,27.49
2019-04-21T07:24:12.311Z,26.73
2019-04-21T07:26:32.731Z,26.03
2019-04-21T07:29:22.079Z,25.42
2019-04-21T07:31:42.063Z,24.88
2019-04-21T07:34:07.848Z,24.50
2019-04-21T07:36:47.784Z,24.51
2019-04-21T07:39:05.935Z,24.22
2019-04-21T07:41:35.054Z,24.61
2019-04-21T07:44:00.372Z,25.08
2019-04-21T07:46:28.750Z,25.34
2019-04-21T07:49:17.607Z,25.65
2019-04-21T07:51:50.632Z,25.96
2019-04-21T07:54:29.113Z,26.58
2019-04-21T07:56:34.977Z,27.58
2019-04-21T07:59:31.520Z,29.03
2019-04-21T08:01:55.146Z,30.07
2019-04-21T08:06:52.067Z,31.99
2019-04-21T08:09:25.612Z,32.89
2019-04-21T08:11:51.797Z,33.51
2019-04-21T08:14:28.341Z,34.01
2019-04-21T08:17:02.815Z,33.70
2019-04-21T08:19:32.593Z,33.95
2019-04-21T08:22:05.229Z,34.02
2019-04-21T08:24:34.723Z,34.18
2019-04-21T08:29:44.085Z,34.95
2019-04-21T08:32:09.410Z,35.68
2019-04-21T08:34:43.152Z,35.76
2019-04-21T08:37:12.619Z,36.55
2019-04-21T08:39:51.029Z,36.90
2019-04-21T08:42:10.394Z,37.15
2019-04-21T08:44:47.776Z,37.39
2019-04-21T08:47:15.391Z,37.61
2019-04-21T08:49:47.284Z,37.39
2019-04-21T08:52:29.483Z,37.24
2019-04-21T08:54:55.721Z,38.47
2019-04-21T08:57:41.673Z,37.76
2019-04-21T09:00:08.433Z,37.50
2019-04-21T09:05:04.578Z,38.09
2019-04-21T09:07:41.666Z,39.58
2019-04-21T09:10:11.020Z,39.41
2019-04-21T09:12:43.111Z,38.47
2019-04-21T09:15:17.431Z,38.04
2019-04-21T09:17:32.841Z,37.62
2019-04-21T09:20:20.960Z,36.54
2019-04-21T09:22:41.279Z,36.84
2019-04-21T09:25:19.360Z,36.69
2019-04-21T09:27:42.061Z,37.54
2019-04-21T09:30:03.420Z,36.94
2019-04-21T09:32:33.079Z,38.14
2019-04-21T09:35:03.428Z,38.05
2019-04-21T09:37:46.851Z,38.75
2019-04-21T09:40:06.772Z,40.82
2019-04-21T09:42:44.307Z,41.23
2019-04-21T09:45:09.975Z,40.88
2019-04-21T09:47:46.484Z,41.12
2019-04-21T09:50:11.507Z,40.95
2019-04-21T09:52:48.856Z,41.93
2019-04-21T09:55:18.953Z,41.41
2019-04-21T09:57:51.532Z,41.62
2019-04-21T10:00:21.128Z,41.77
2019-04-21T10:02:55.622Z,41.31
2019-04-21T10:05:19.168Z,41.99
2019-04-21T10:07:48.977Z,41.52
2019-04-21T10:10:19.214Z,41.19
2019-04-21T10:12:49.940Z,40.35
2019-04-21T10:15:21.956Z,40.79
2019-04-21T10:18:03.898Z,40.81
2019-04-21T10:20:33.477Z,40.38
2019-04-21T10:23:03.024Z,40.65
2019-04-21T10:25:32.639Z,39.99
2019-04-21T10:28:03.319Z,40.79
2019-04-21T10:30:33.108Z,40.89
2019-04-21T10:33:02.501Z,40.94
2019-04-21T10:35:32.974Z,41.53
2019-04-21T10:38:14.944Z,41.15
2019-04-21T10:40:35.599Z,42.07
2019-04-21T10:43:06.149Z,42.84
2019-04-21T10:45:36.956Z,42.65
2019-04-21T10:48:07.329Z,42.16
2019-04-21T10:50:37.101Z,42.53
2019-04-21T10:53:09.220Z,42.15
2019-04-21T10:55:54.282Z,42.58
2019-04-21T10:58:14.406Z,42.55
2019-04-21T11:00:46.208Z,42.81
2019-04-21T11:03:26.840Z,43.40
2019-04-21T11:05:58.909Z,43.24
2019-04-21T11:08:35.443Z,43.74
2019-04-21T11:10:59.918Z,43.00
2019-04-21T11:13:30.756Z,44.35
2019-04-21T11:16:01.370Z,44.55
2019-04-21T11:18:31.657Z,44.89
2019-04-21T11:21:01.139Z,45.05
2019-04-21T11:23:31.298Z,43.97
2019-04-21T11:26:02.161Z,43.82
2019-04-21T11:28:31.764Z,45.11
2019-04-21T11:31:02.581Z,44.67
2019-04-21T11:33:33.403Z,45.02
2019-04-21T11:36:03.593Z,44.03
2019-04-21T11:39:06.135Z,43.16
2019-04-21T11:41:23.723Z,42.73
2019-04-21T11:43:54.921Z,43.96
2019-04-21T11:46:24.573Z,43.51
2019-04-21T11:48:54.733Z,44.84
2019-04-21T11:51:24.878Z,43.71
2019-04-21T11:53:54.989Z,43.35
2019-04-21T11:56:25.070Z,44.06
2019-04-21T11:58:54.693Z,43.33
2019-04-21T12:01:25.500Z,43.51
2019-04-21T12:03:55.708Z,43.16
2019-04-21T12:06:32.330Z,43.00
2019-04-21T12:08:59.076Z,43.87
2019-04-21T12:11:27.448Z,42.88
2019-04-21T12:13:58.303Z,41.68
2019-04-21T12:16:28.794Z,41.02
2019-04-21T12:18:58.842Z,41.38
2019-04-21T12:21:34.998Z,40.86
2019-04-21T12:24:00.639Z,40.70
2019-04-21T12:26:31.688Z,39.81
2019-04-21T12:29:01.844Z,39.48
2019-04-21T12:31:49.532Z,38.32
2019-04-21T12:34:21.849Z,38.11
2019-04-21T12:36:52.722Z,37.46
2019-04-21T12:39:23.010Z,35.21
2019-04-21T12:41:52.585Z,34.27
2019-04-21T12:44:22.557Z,33.04
2019-04-21T12:46:52.162Z,32.60
2019-04-21T12:49:22.102Z,32.11
2019-04-21T12:51:51.665Z,32.09
2019-04-21T12:54:21.707Z,31.65
2019-04-21T12:56:51.778Z,31.42
2019-04-21T12:59:21.330Z,31.19
2019-04-21T13:01:50.879Z,31.23
2019-04-21T13:04:21.753Z,31.20
2019-04-21T13:06:51.784Z,31.09
2019-04-21T13:09:22.251Z,30.92
2019-04-21T13:11:52.975Z,30.56
2019-04-21T13:14:22.509Z,30.46
2019-04-21T13:16:51.905Z,30.46
2019-04-21T13:19:21.324Z,30.39
2019-04-21T13:21:51.948Z,30.11
2019-04-21T13:24:22.036Z,30.12
2019-04-21T13:26:57.600Z,30.30
2019-04-21T13:29:23.856Z,30.38
2019-04-21T13:31:54.296Z,30.56
2019-04-21T13:34:24.129Z,31.03
2019-04-21T13:36:53.975Z,30.81
2019-04-21T13:39:50.379Z,30.48
2019-04-21T13:42:11.094Z,30.32
2019-04-21T13:44:32.939Z,30.10
2019-04-21T13:47:02.807Z,29.85
2019-04-21T13:49:32.283Z,30.02
2019-04-21T13:52:02.664Z,29.92
2019-04-21T13:54:33.629Z,29.70
2019-04-21T13:57:04.921Z,29.62
2019-04-21T13:59:34.446Z,29.52
2019-04-21T14:02:04.777Z,29.18
2019-04-21T14:04:35.539Z,29.24
2019-04-21T14:07:06.039Z,29.22
2019-04-21T14:09:43.815Z,29.20
2019-04-21T14:12:09.736Z,29.20
2019-04-21T14:14:39.247Z,29.10
2019-04-21T14:17:09.009Z,28.97
2019-04-21T14:19:39.422Z,28.83
2019-04-21T14:22:11.707Z,28.85
2019-04-21T14:24:41.519Z,28.82
2019-04-21T14:27:12.154Z,28.71
2019-04-21T14:29:43.860Z,28.72
2019-04-21T14:32:13.960Z,28.84
2019-04-21T14:34:44.084Z,28.68
2019-04-21T14:37:14.895Z,28.70
2019-04-21T14:39:55.271Z,28.85
2019-04-21T14:42:16.001Z,28.86
2019-04-21T14:44:46.859Z,28.59
2019-04-21T14:47:25.125Z,28.59
2019-04-21T14:50:13.558Z,28.74
2019-04-21T14:52:44.326Z,28.70
2019-04-21T14:55:31.192Z,28.79
2019-04-21T14:58:01.204Z,28.87
2019-04-21T15:00:33.688Z,28.83
2019-04-21T15:03:05.644Z,29.02
2019-04-21T15:05:37.604Z,28.91
2019-04-21T15:08:07.055Z,28.84
2019-04-21T15:10:36.815Z,28.72
2019-04-21T15:13:07.662Z,28.75
2019-04-21T15:15:38.059Z,28.87
2019-04-21T15:18:08.502Z,28.79
2019-04-21T15:20:38.441Z,28.70
2019-04-21T15:23:08.374Z,28.76
2019-04-21T15:25:38.520Z,28.83
2019-04-21T15:28:08.047Z,28.79
2019-04-21T15:30:38.615Z,28.62
2019-04-21T15:33:08.553Z,28.59
2019-04-21T15:35:39.086Z,28.54
2019-04-21T15:38:09.743Z,28.41
2019-04-21T15:40:46.771Z,28.26
2019-04-21T15:43:10.691Z,28.06
2019-04-21T15:45:40.041Z,28.24
2019-04-21T15:48:09.902Z,28.28
2019-04-21T15:50:40.255Z,28.31
2019-04-21T15:53:11.937Z,28.36
2019-04-21T15:55:44.375Z,28.18
2019-04-21T15:58:18.920Z,28.25
2019-04-21T16:00:50.306Z,28.23
2019-04-21T16:03:24.791Z,28.42
2019-04-21T16:05:56.350Z,28.40
2019-04-21T16:08:27.138Z,28.44
2019-04-21T16:11:00.268Z,28.23
2019-04-21T16:13:27.766Z,28.08
2019-04-21T16:15:58.684Z,27.97
2019-04-21T16:18:28.275Z,27.87
2019-04-21T16:20:57.820Z,27.74
2019-04-21T16:23:28.575Z,27.64
2019-04-21T16:25:59.123Z,27.47
2019-04-21T16:28:31.193Z,27.32
2019-04-21T16:31:02.384Z,27.18
2019-04-21T16:33:33.345Z,27.20
2019-04-21T16:36:02.821Z,27.09
2019-04-21T16:38:33.449Z,26.99
2019-04-21T16:41:05.529Z,26.70
2019-04-21T16:43:35.412Z,26.61
2019-04-21T16:46:04.986Z,26.35
2019-04-21T16:48:35.710Z,26.23
2019-04-21T16:51:05.777Z,26.02
2019-04-21T16:53:37.761Z,25.77
2019-04-21T16:56:08.982Z,25.63
2019-04-21T16:58:40.944Z,25.48
2019-04-21T17:01:15.950Z,25.36
2019-04-21T17:03:50.531Z,25.33
2019-04-21T17:06:22.876Z,25.30
2019-04-21T17:08:52.740Z,25.28
2019-04-21T17:11:28.692Z,25.24
2019-04-21T17:13:54.222Z,25.13
2019-04-21T17:19:08.183Z,24.89
2019-04-21T17:21:26.153Z,24.83
2019-04-21T17:23:56.623Z,24.74
2019-04-21T17:26:27.008Z,24.61
2019-04-21T17:28:56.770Z,24.46
2019-04-21T17:31:26.766Z,24.36
2019-04-21T17:34:03.524Z,24.30
2019-04-21T17:36:27.550Z,24.27
2019-04-21T17:39:02.246Z,24.18
2019-04-21T17:41:40.943Z,24.06
2019-04-21T17:44:04.480Z,23.97
2019-04-21T17:46:45.592Z,23.83
2019-04-21T17:49:05.239Z,23.74
2019-04-21T17:51:48.046Z,23.71
2019-04-21T17:54:19.885Z,23.53
2019-04-21T17:57:04.565Z,23.50
2019-04-21T17:59:44.859Z,23.40
2019-04-21T18:02:04.066Z,23.31
2019-04-21T18:04:34.845Z,23.28
2019-04-21T18:07:15.218Z,23.20
2019-04-21T18:09:58.002Z,22.99
2019-04-21T18:12:18.026Z,22.91
2019-04-21T18:14:34.601Z,22.84
2019-04-21T18:17:04.587Z,22.77
2019-04-21T18:19:36.865Z,22.78
2019-04-21T18:22:09.019Z,22.64
2019-04-21T18:24:48.856Z,22.57
2019-04-21T18:27:11.653Z,22.48
2019-04-21T18:29:42.338Z,22.42
2019-04-21T18:32:12.604Z,22.41
2019-04-21T18:34:49.385Z,22.39
2019-04-21T18:37:34.996Z,22.29
2019-04-21T18:40:08.921Z,22.24
2019-04-21T18:42:55.077Z,22.10
2019-04-21T18:48:14.333Z,21.92
2019-04-21T18:51:00.290Z,21.85
2019-04-21T18:53:44.873Z,21.85
2019-04-21T18:56:05.283Z,21.75
2019-04-21T18:58:30.835Z,21.66
2019-04-21T19:01:07.333Z,21.57
2019-04-21T19:03:38.401Z,21.45
2019-04-21T19:06:10.836Z,21.40
2019-04-21T19:08:59.721Z,21.31
2019-04-21T19:11:24.043Z,21.21
2019-04-21T19:14:27.090Z,21.07
2019-04-21T19:16:47.766Z,21.02
2019-04-21T19:21:49.919Z,21.03
2019-04-21T19:24:29.446Z,20.94
2019-04-21T19:31:54.803Z,20.91
2019-04-21T19:34:16.224Z,20.91
2019-04-21T19:36:47.608Z,20.81
2019-04-21T19:39:16.381Z,20.74
2019-04-21T19:41:57.667Z,20.67
2019-04-21T19:44:26.272Z,20.60
2019-04-21T19:47:03.910Z,20.58
2019-04-21T19:49:39.941Z,20.46
2019-04-21T19:51:57.515Z,20.40
2019-04-21T19:54:25.240Z,20.33
2019-04-21T19:56:49.050Z,20.35
2019-04-21T19:59:31.841Z,20.32
2019-04-21T20:01:51.381Z,20.31
2019-04-21T20:04:31.795Z,20.22
2019-04-21T20:07:02.912Z,20.16
2019-04-21T20:09:40.622Z,20.00
2019-04-21T20:12:13.161Z,19.95
2019-04-21T20:14:55.313Z,19.89
2019-04-21T20:17:08.891Z,19.96
2019-04-21T20:19:27.594Z,19.90
2019-04-21T20:21:57.071Z,19.85
2019-04-21T20:24:29.874Z,19.73
2019-04-21T20:27:05.864Z,19.61
2019-04-21T20:29:49.834Z,19.59
2019-04-21T20:32:24.649Z,19.52
2019-04-21T20:34:56.553Z,19.41
2019-04-21T20:37:21.365Z,19.34
2019-04-21T20:39:46.312Z,19.21
2019-04-21T20:42:20.887Z,19.06
2019-04-21T20:45:13.142Z,18.87
2019-04-21T20:47:20.107Z,18.80
2019-04-21T20:49:57.153Z,18.66
2019-04-21T20:52:41.734Z,18.55
2019-04-21T20:54:53.879Z,18.50
2019-04-21T20:57:30.173Z,18.41
2019-04-21T21:00:07.075Z,18.28
2019-04-21T21:02:37.020Z,18.18
2019-04-21T21:05:22.086Z,18.23
2019-04-21T21:08:03.586Z,18.21
2019-04-21T21:10:27.963Z,18.20
2019-04-21T21:13:09.905Z,18.24
2019-04-21T21:15:30.284Z,18.28
2019-04-21T21:18:06.262Z,18.20
2019-04-21T21:20:36.851Z,18.22
2019-04-21T21:23:02.943Z,18.32
2019-04-21T21:25:40.065Z,18.35
2019-04-21T21:28:01.278Z,18.32
2019-04-21T21:30:34.813Z,18.25
2019-04-21T21:33:12.633Z,18.12
2019-04-21T21:35:37.196Z,18.12
2019-04-21T21:38:13.201Z,18.23
2019-04-21T21:40:42.088Z,18.31
2019-04-21T21:43:01.553Z,18.32
2019-04-21T21:45:38.928Z,18.35
2019-04-21T21:48:18.756Z,18.32
2019-04-21T21:50:46.030Z,18.36
2019-04-21T21:53:11.561Z,18.35
2019-04-21T21:55:35.835Z,18.22
2019-04-21T21:58:06.449Z,18.07
2019-04-21T22:00:41.990Z,18.12
2019-04-21T22:03:17.561Z,18.13
2019-04-21T22:05:47.546Z,18.13
2019-04-21T22:08:14.371Z,18.16
2019-04-21T22:10:45.311Z,18.17
2019-04-21T22:13:20.018Z,18.17
2019-04-21T22:15:49.385Z,18.25
2019-04-21T22:18:37.841Z,18.30
2019-04-21T22:21:03.277Z,18.34
2019-04-21T22:23:30.517Z,18.34
2019-04-21T22:25:51.453Z,18.35
2019-04-21T22:28:22.101Z,18.38
2019-04-21T22:30:53.676Z,18.44
2019-04-21T22:33:23.405Z,18.46
2019-04-21T22:35:59.219Z,18.43
2019-04-21T22:38:38.101Z,18.41
2019-04-21T22:41:04.416Z,18.37
2019-04-21T22:43:32.942Z,18.36
2019-04-21T22:45:57.429Z,18.44
2019-04-21T22:48:28.902Z,18.42
2019-04-21T22:50:58.304Z,18.38
2019-04-21T22:53:34.681Z,18.33
2019-04-21T22:56:10.188Z,18.36
2019-04-21T22:58:35.675Z,18.43
2019-04-21T23:01:03.794Z,18.37
2019-04-21T23:03:33.879Z,18.35
2019-04-21T23:06:17.446Z,18.40
2019-04-21T23:08:45.345Z,18.38
2019-04-21T23:11:14.677Z,18.29
2019-04-21T23:13:51.364Z,18.36
2019-04-21T23:16:21.495Z,18.28
2019-04-21T23:19:09.634Z,18.38
2019-04-21T23:21:30.489Z,18.39
2019-04-21T23:24:13.477Z,18.37
2019-04-21T23:26:37.913Z,18.28
2019-04-21T23:29:13.960Z,18.28
2019-04-21T23:31:43.294Z,18.35
2019-04-21T23:33:54.789Z,18.37
2019-04-21T23:36:27.921Z,18.34
2019-04-21T23:38:57.129Z,18.32
2019-04-21T23:41:33.581Z,18.23
2019-04-21T23:44:05.913Z,18.20
2019-04-21T23:46:34.425Z,18.18
2019-04-21T23:49:16.066Z,18.09
2019-04-21T23:51:42.941Z,18.19
2019-04-21T23:54:02.150Z,18.21
2019-04-21T23:56:35.825Z,18.14
2019-04-21T23:59:06.355Z,18.07
